createdAt,value
2017-10-11T00:00:44.052Z,100803
2017-10-11T00:03:10.311Z,100803
2017-10-11T00:05:36.573Z,100811
2017-10-11T00:08:03.549Z,100802
2017-10-11T00:10:29.784Z,100802
2017-10-11T00:12:56.130Z,100800
2017-10-11T00:15:22.369Z,100807
2017-10-11T00:17:48.605Z,100805
2017-10-11T00:20:14.857Z,100803
2017-10-11T00:22:41.846Z,100805
2017-10-11T00:25:08.096Z,100804
2017-10-11T00:27:34.379Z,100803
2017-10-11T00:30:01.363Z,100802
2017-10-11T00:32:27.581Z,100810
2017-10-11T00:34:53.837Z,100804
2017-10-11T00:37:20.843Z,100806
2017-10-11T00:39:47.077Z,100810
2017-10-11T00:42:13.392Z,100802
2017-10-11T00:44:39.646Z,100804
2017-10-11T00:47:05.883Z,100812
2017-10-11T00:49:32.185Z,100810
2017-10-11T00:51:58.419Z,100810
2017-10-11T00:54:24.651Z,100811
2017-10-11T00:56:50.946Z,100809
2017-10-11T00:59:17.937Z,100812
2017-10-11T01:01:44.172Z,100813
2017-10-11T01:04:10.470Z,100807
2017-10-11T01:06:36.702Z,100808
2017-10-11T01:09:02.981Z,100811
2017-10-11T01:11:29.539Z,100808
2017-10-11T01:13:56.526Z,100802
2017-10-11T01:16:22.793Z,100802
2017-10-11T01:18:49.080Z,100802
2017-10-11T01:21:15.363Z,100807
2017-10-11T01:23:41.619Z,100798
2017-10-11T01:26:08.639Z,100799
2017-10-11T01:28:34.884Z,100800
2017-10-11T01:31:01.898Z,100797
2017-10-11T01:33:28.197Z,100800
2017-10-11T01:35:54.460Z,100802
2017-10-11T01:38:20.722Z,100807
2017-10-11T01:40:47.741Z,100803
2017-10-11T01:43:13.987Z,100806
2017-10-11T01:45:40.981Z,100804
2017-10-11T01:48:07.277Z,100804
2017-10-11T01:50:34.273Z,100805
2017-10-11T01:53:00.541Z,100809
2017-10-11T01:55:27.573Z,100807
2017-10-11T01:57:53.810Z,100809
2017-10-11T02:00:20.789Z,100801
2017-10-11T02:02:47.070Z,100805
2017-10-11T02:05:13.301Z,100807
2017-10-11T02:07:39.689Z,100803
2017-10-11T02:10:05.955Z,100801
2017-10-11T02:12:32.207Z,100802
2017-10-11T02:14:59.165Z,100797
2017-10-11T02:17:25.852Z,100797
2017-10-11T02:19:52.084Z,100795
2017-10-11T02:22:18.333Z,100795
2017-10-11T02:24:45.353Z,100794
2017-10-11T02:27:11.601Z,100794
2017-10-11T02:29:37.830Z,100791
2017-10-11T02:32:04.095Z,100788
2017-10-11T02:34:30.313Z,100790
2017-10-11T02:36:57.276Z,100787
2017-10-11T02:39:23.681Z,100790
2017-10-11T02:41:50.677Z,100790
2017-10-11T02:44:16.891Z,100783
2017-10-11T02:46:43.448Z,100782
2017-10-11T02:49:09.689Z,100788
2017-10-11T02:51:35.910Z,100783
2017-10-11T02:54:02.446Z,100782
2017-10-11T02:56:28.668Z,100777
2017-10-11T02:58:54.900Z,100776
2017-10-11T03:01:21.154Z,100773
2017-10-11T03:03:47.376Z,100772
2017-10-11T03:06:13.613Z,100770
2017-10-11T03:08:40.659Z,100773
2017-10-11T03:11:07.896Z,100763
2017-10-11T03:13:34.119Z,100769
2017-10-11T03:16:00.375Z,100764
2017-10-11T03:18:27.341Z,100766
2017-10-11T03:20:53.566Z,100766
2017-10-11T03:23:20.026Z,100756
2017-10-11T03:25:46.244Z,100758
2017-10-11T03:28:12.468Z,100757
2017-10-11T03:30:38.934Z,100762
2017-10-11T03:33:05.265Z,100754
2017-10-11T03:35:31.489Z,100757
2017-10-11T03:37:58.509Z,100752
2017-10-11T03:40:24.753Z,100754
2017-10-11T03:42:50.989Z,100757
2017-10-11T03:45:17.345Z,100754
2017-10-11T03:47:43.554Z,100751
2017-10-11T03:50:09.774Z,100749
2017-10-11T03:52:37.029Z,100749
2017-10-11T03:55:03.282Z,100751
2017-10-11T03:57:29.510Z,100745
2017-10-11T03:59:55.771Z,100747
2017-10-11T04:02:21.989Z,100742
2017-10-11T04:04:48.951Z,100746
2017-10-11T04:07:15.202Z,100746
2017-10-11T04:09:41.416Z,100740
2017-10-11T04:12:07.667Z,100746
2017-10-11T04:14:33.921Z,100752
2017-10-11T04:17:00.149Z,100750
2017-10-11T04:19:26.400Z,100740
2017-10-11T04:21:53.555Z,100744
2017-10-11T04:24:20.524Z,100747
2017-10-11T04:26:46.755Z,100748
2017-10-11T04:29:13.187Z,100743
2017-10-11T04:31:39.434Z,100738
2017-10-11T04:34:05.710Z,100738
2017-10-11T04:36:32.748Z,100739
2017-10-11T04:38:58.981Z,100736
2017-10-11T04:41:25.966Z,100739
2017-10-11T04:43:52.629Z,100738
2017-10-11T04:46:18.880Z,100739
2017-10-11T04:48:45.122Z,100735
2017-10-11T04:51:12.156Z,100732
2017-10-11T04:53:38.380Z,100732
2017-10-11T04:56:04.592Z,100734
2017-10-11T04:58:31.016Z,100737
2017-10-11T05:00:57.249Z,100744
2017-10-11T05:03:23.470Z,100735
2017-10-11T05:05:49.804Z,100734
2017-10-11T05:08:16.030Z,100737
2017-10-11T05:10:42.290Z,100737
2017-10-11T05:13:08.546Z,100736
2017-10-11T05:15:34.769Z,100740
2017-10-11T05:18:01.731Z,100740
2017-10-11T05:20:27.989Z,100732
2017-10-11T05:22:54.244Z,100737
2017-10-11T05:25:20.788Z,100734
2017-10-11T05:27:47.289Z,100738
2017-10-11T05:30:13.520Z,100736
2017-10-11T05:32:39.745Z,100731
2017-10-11T05:35:05.996Z,100732
2017-10-11T05:37:32.209Z,100731
2017-10-11T05:39:58.429Z,100733
2017-10-11T05:42:25.429Z,100735
2017-10-11T05:44:51.654Z,100736
2017-10-11T05:47:18.626Z,100735
2017-10-11T05:49:44.876Z,100738
2017-10-11T05:52:11.103Z,100732
2017-10-11T05:54:37.332Z,100728
2017-10-11T05:57:03.737Z,100727
2017-10-11T05:59:29.959Z,100733
2017-10-11T06:01:56.180Z,100730
2017-10-11T06:04:22.422Z,100729
2017-10-11T06:06:48.660Z,100732
2017-10-11T06:09:14.880Z,100736
2017-10-11T06:11:41.129Z,100736
2017-10-11T06:14:07.358Z,100733
2017-10-11T06:16:33.590Z,100732
2017-10-11T06:19:00.095Z,100728
2017-10-11T06:21:26.342Z,100727
2017-10-11T06:23:52.557Z,100730
2017-10-11T06:26:18.812Z,100728
2017-10-11T06:28:45.038Z,100726
2017-10-11T06:31:11.265Z,100713
2017-10-11T06:33:37.781Z,100719
2017-10-11T06:36:04.026Z,100721
2017-10-11T06:38:30.260Z,100728
2017-10-11T06:40:57.606Z,100732
2017-10-11T06:43:23.861Z,100728
2017-10-11T06:45:50.073Z,100731
2017-10-11T06:48:16.317Z,100737
2017-10-11T06:50:42.564Z,100730
2017-10-11T06:53:09.516Z,100734
2017-10-11T06:55:36.530Z,100731
2017-10-11T06:58:02.763Z,100740
2017-10-11T07:00:28.985Z,100744
2017-10-11T07:02:55.258Z,100749
2017-10-11T07:05:21.469Z,100746
2017-10-11T07:07:48.421Z,100748
2017-10-11T07:10:15.551Z,100752
2017-10-11T07:12:41.796Z,100755
2017-10-11T07:15:09.244Z,100749
2017-10-11T07:17:35.664Z,100750
2017-10-11T07:20:01.925Z,100747
2017-10-11T07:22:28.180Z,100760
2017-10-11T07:24:54.395Z,100753
2017-10-11T07:27:20.621Z,100757
2017-10-11T07:29:46.972Z,100749
2017-10-11T07:32:13.269Z,100755
2017-10-11T07:34:39.526Z,100755
2017-10-11T07:37:06.177Z,100759
2017-10-11T07:39:33.353Z,100756
2017-10-11T07:42:00.821Z,100760
2017-10-11T07:44:27.514Z,100755
2017-10-11T07:46:53.774Z,100760
2017-10-11T07:49:20.046Z,100761
2017-10-11T07:51:46.828Z,100760
2017-10-11T07:54:13.086Z,100757
2017-10-11T07:56:40.120Z,100764
2017-10-11T07:59:06.486Z,100767
2017-10-11T08:01:32.803Z,100751
2017-10-11T08:03:59.851Z,100770
2017-10-11T08:06:26.861Z,100768
2017-10-11T08:08:53.201Z,100762
2017-10-11T08:11:19.534Z,100771
2017-10-11T08:13:45.840Z,100777
2017-10-11T08:16:12.127Z,100777
2017-10-11T08:18:38.411Z,100777
2017-10-11T08:21:04.670Z,100776
2017-10-11T08:23:31.667Z,100780
2017-10-11T08:25:58.011Z,100781
2017-10-11T08:28:24.272Z,100782
2017-10-11T08:30:51.294Z,100782
2017-10-11T08:33:17.588Z,100783
2017-10-11T08:35:43.833Z,100781
2017-10-11T08:38:10.080Z,100782
2017-10-11T08:40:36.352Z,100786
2017-10-11T08:43:02.628Z,100788
2017-10-11T08:45:28.875Z,100773
2017-10-11T08:47:55.143Z,100789
2017-10-11T08:50:21.469Z,100784
2017-10-11T08:52:47.727Z,100781
2017-10-11T08:55:14.153Z,100780
2017-10-11T08:57:40.435Z,100782
2017-10-11T09:00:07.891Z,100777
2017-10-11T09:02:35.210Z,100782
2017-10-11T09:05:01.502Z,100778
2017-10-11T09:07:27.743Z,100773
2017-10-11T09:09:54.037Z,100774
2017-10-11T09:12:21.019Z,100773
2017-10-11T09:14:47.489Z,100772
2017-10-11T09:17:13.727Z,100780
2017-10-11T09:19:40.009Z,100778
2017-10-11T09:22:06.509Z,100781
2017-10-11T09:24:33.487Z,100790
2017-10-11T09:26:59.760Z,100788
2017-10-11T09:29:26.138Z,100788
2017-10-11T09:31:52.417Z,100790
2017-10-11T09:34:18.711Z,100787
2017-10-11T09:36:45.455Z,100791
2017-10-11T09:39:11.691Z,100787
2017-10-11T09:41:38.005Z,100797
2017-10-11T09:44:04.243Z,100789
2017-10-11T09:46:30.929Z,100785
2017-10-11T09:48:58.155Z,100792
2017-10-11T09:51:24.438Z,100785
2017-10-11T09:53:50.679Z,100782
2017-10-11T09:56:17.358Z,100795
2017-10-11T09:58:44.363Z,100799
2017-10-11T10:01:10.614Z,100801
2017-10-11T10:03:37.266Z,100799
2017-10-11T10:06:04.246Z,100800
2017-10-11T10:08:31.256Z,100794
2017-10-11T10:10:57.896Z,100796
2017-10-11T10:13:24.135Z,100800
2017-10-11T10:15:50.389Z,100804
2017-10-11T10:18:17.466Z,100803
2017-10-11T10:20:43.718Z,100799
2017-10-11T10:23:10.117Z,100797
2017-10-11T10:25:36.403Z,100799
2017-10-11T10:28:02.655Z,100797
2017-10-11T10:30:29.679Z,100797
2017-10-11T10:32:56.003Z,100790
2017-10-11T10:35:22.247Z,100794
2017-10-11T10:37:49.277Z,100794
2017-10-11T10:40:15.581Z,100794
2017-10-11T10:42:41.840Z,100792
2017-10-11T10:45:08.102Z,100788
2017-10-11T10:47:34.396Z,100798
2017-10-11T10:50:00.683Z,100796
2017-10-11T10:52:26.915Z,100794
2017-10-11T10:54:53.226Z,100787
2017-10-11T10:57:19.486Z,100799
2017-10-11T10:59:45.759Z,100802
2017-10-11T11:02:12.809Z,100800
2017-10-11T11:04:39.804Z,100795
2017-10-11T11:07:06.054Z,100804
2017-10-11T11:09:32.388Z,100804
2017-10-11T11:11:58.655Z,100801
2017-10-11T11:14:25.665Z,100805
2017-10-11T11:16:51.948Z,100811
2017-10-11T11:19:18.189Z,100806
2017-10-11T11:21:44.459Z,100805
2017-10-11T11:24:10.751Z,100810
2017-10-11T11:26:37.016Z,100808
2017-10-11T11:29:03.313Z,100810
2017-10-11T11:31:29.590Z,100804
2017-10-11T11:33:56.580Z,100808
2017-10-11T11:36:22.850Z,100809
2017-10-11T11:38:49.118Z,100811
2017-10-11T11:41:15.395Z,100815
2017-10-11T11:43:41.726Z,100810
2017-10-11T11:46:08.006Z,100809
2017-10-11T11:48:34.263Z,100803
2017-10-11T11:51:00.559Z,100805
2017-10-11T11:53:26.827Z,100795
2017-10-11T11:55:53.123Z,100806
2017-10-11T11:58:19.426Z,100806
2017-10-11T12:00:46.480Z,100811
2017-10-11T12:03:13.460Z,100814
2017-10-11T12:05:40.031Z,100813
2017-10-11T12:08:06.348Z,100813
2017-10-11T12:10:32.579Z,100810
2017-10-11T12:12:59.652Z,100811
2017-10-11T12:15:26.666Z,100800
2017-10-11T12:17:52.912Z,100803
2017-10-11T12:20:19.204Z,100801
2017-10-11T12:22:45.461Z,100805
2017-10-11T12:25:11.852Z,100807
2017-10-11T12:27:38.326Z,100808
2017-10-11T12:30:04.582Z,100806
2017-10-11T12:32:30.849Z,100802
2017-10-11T12:34:57.123Z,100800
2017-10-11T12:37:23.379Z,100803
2017-10-11T12:39:50.337Z,100798
2017-10-11T12:42:16.624Z,100803
2017-10-11T12:44:42.915Z,100798
2017-10-11T12:47:09.166Z,100790
2017-10-11T12:49:35.454Z,100790
2017-10-11T12:52:02.425Z,100782
2017-10-11T12:54:28.648Z,100800
2017-10-11T12:56:54.919Z,100804
2017-10-11T12:59:21.165Z,100801
2017-10-11T13:01:48.148Z,100799
2017-10-11T13:04:14.445Z,100795
2017-10-11T13:06:41.426Z,100798
2017-10-11T13:09:07.687Z,100796
2017-10-11T13:11:34.139Z,100799
2017-10-11T13:14:00.394Z,100800
2017-10-11T13:16:27.391Z,100796
2017-10-11T13:18:53.789Z,100798
2017-10-11T13:21:20.056Z,100800
2017-10-11T13:23:46.340Z,100798
2017-10-11T13:26:12.639Z,100798
2017-10-11T13:28:39.649Z,100794
2017-10-11T13:31:06.663Z,100794
2017-10-11T13:33:32.934Z,100803
2017-10-11T13:35:59.200Z,100800
2017-10-11T13:38:26.231Z,100800
2017-10-11T13:40:52.545Z,100803
2017-10-11T13:43:18.805Z,100798
2017-10-11T13:45:45.814Z,100792
2017-10-11T13:48:12.074Z,100797
2017-10-11T13:50:39.078Z,100795
2017-10-11T13:53:05.479Z,100795
2017-10-11T13:55:31.753Z,100796
2017-10-11T13:57:58.031Z,100791
2017-10-11T14:00:24.514Z,100792
2017-10-11T14:02:50.777Z,100793
2017-10-11T14:05:17.791Z,100786
2017-10-11T14:07:44.087Z,100790
2017-10-11T14:10:10.352Z,100787
2017-10-11T14:12:36.645Z,100787
2017-10-11T14:15:02.912Z,100791
2017-10-11T14:17:29.171Z,100790
2017-10-11T14:19:55.495Z,100792
2017-10-11T14:22:22.504Z,100782
2017-10-11T14:24:48.730Z,100781
2017-10-11T14:27:15.068Z,100785
2017-10-11T14:29:41.332Z,100782
2017-10-11T14:32:08.339Z,100785
2017-10-11T14:34:34.813Z,100783
2017-10-11T14:37:01.822Z,100784
2017-10-11T14:39:28.089Z,100790
2017-10-11T14:41:55.098Z,100783
2017-10-11T14:44:21.369Z,100779
2017-10-11T14:46:48.355Z,100779
2017-10-11T14:49:14.695Z,100783
2017-10-11T14:51:41.002Z,100785
2017-10-11T14:54:07.269Z,100783
2017-10-11T14:56:33.646Z,100788
2017-10-11T14:58:59.940Z,100784
2017-10-11T15:01:26.242Z,100780
2017-10-11T15:03:52.668Z,100779
2017-10-11T15:06:18.934Z,100781
2017-10-11T15:08:45.200Z,100776
2017-10-11T15:11:11.549Z,100776
2017-10-11T15:13:37.800Z,100778
2017-10-11T15:16:04.073Z,100778
2017-10-11T15:18:31.278Z,100775
2017-10-11T15:20:57.546Z,100777
2017-10-11T15:23:24.574Z,100782
2017-10-11T15:25:51.197Z,100778
2017-10-11T15:28:17.455Z,100778
2017-10-11T15:30:44.463Z,100776
2017-10-11T15:33:11.319Z,100786
2017-10-11T15:35:37.590Z,100781
2017-10-11T15:38:03.876Z,100786
2017-10-11T15:40:30.162Z,100783
2017-10-11T15:42:56.409Z,100783
2017-10-11T15:45:22.680Z,100786
2017-10-11T15:47:48.933Z,100788
2017-10-11T15:50:15.208Z,100793
2017-10-11T15:52:41.637Z,100787
2017-10-11T15:55:07.886Z,100790
2017-10-11T15:57:34.141Z,100790
2017-10-11T16:00:01.199Z,100788
2017-10-11T16:02:27.493Z,100783
2017-10-11T16:04:53.767Z,100782
2017-10-11T16:07:20.041Z,100779
2017-10-11T16:09:46.306Z,100775
2017-10-11T16:12:13.306Z,100784
2017-10-11T16:14:39.590Z,100784
2017-10-11T16:17:06.583Z,100782
2017-10-11T16:19:32.832Z,100782
2017-10-11T16:21:59.144Z,100782
2017-10-11T16:24:25.399Z,100775
2017-10-11T16:26:52.366Z,100775
2017-10-11T16:29:19.263Z,100780
2017-10-11T16:31:45.612Z,100776
2017-10-11T16:34:11.911Z,100779
2017-10-11T16:36:38.563Z,100778
2017-10-11T16:39:04.823Z,100773
2017-10-11T16:41:31.832Z,100777
2017-10-11T16:43:58.870Z,100782
2017-10-11T16:46:25.147Z,100781
2017-10-11T16:48:52.153Z,100782
2017-10-11T16:51:18.594Z,100776
2017-10-11T16:53:44.895Z,100778
2017-10-11T16:56:11.149Z,100783
2017-10-11T16:58:37.690Z,100782
2017-10-11T17:01:03.963Z,100777
2017-10-11T17:03:30.225Z,100785
2017-10-11T17:05:56.491Z,100782
2017-10-11T17:08:22.741Z,100785
2017-10-11T17:10:49.741Z,100780
2017-10-11T17:13:16.316Z,100789
2017-10-11T17:15:43.314Z,100788
2017-10-11T17:18:09.594Z,100782
2017-10-11T17:20:36.643Z,100787
2017-10-11T17:23:03.617Z,100782
2017-10-11T17:25:29.887Z,100782
2017-10-11T17:27:56.175Z,100774
2017-10-11T17:30:22.413Z,100781
2017-10-11T17:32:48.688Z,100782
2017-10-11T17:35:15.849Z,100781
2017-10-11T17:37:42.837Z,100778
2017-10-11T17:40:09.131Z,100775
2017-10-11T17:42:36.337Z,100778
2017-10-11T17:45:02.624Z,100783
2017-10-11T17:47:28.883Z,100785
2017-10-11T17:49:55.175Z,100785
2017-10-11T17:52:22.190Z,100786
2017-10-11T17:54:48.479Z,100786
2017-10-11T17:57:14.759Z,100788
2017-10-11T17:59:41.776Z,100782
2017-10-11T18:02:08.049Z,100792
2017-10-11T18:04:35.078Z,100783
2017-10-11T18:07:01.341Z,100786
2017-10-11T18:09:27.623Z,100786
2017-10-11T18:11:53.934Z,100784
2017-10-11T18:14:20.188Z,100782
2017-10-11T18:16:46.430Z,100772
2017-10-11T18:19:13.471Z,100776
2017-10-11T18:21:40.470Z,100774
2017-10-11T18:24:06.719Z,100782
2017-10-11T18:26:33.352Z,100784
2017-10-11T18:28:59.577Z,100786
2017-10-11T18:31:25.846Z,100781
2017-10-11T18:33:53.071Z,100780
2017-10-11T18:36:19.351Z,100777
2017-10-11T18:38:45.618Z,100778
2017-10-11T18:41:11.887Z,100780
2017-10-11T18:43:38.881Z,100777
2017-10-11T18:46:05.181Z,100781
2017-10-11T18:48:31.449Z,100780
2017-10-11T18:50:57.700Z,100780
2017-10-11T18:53:24.017Z,100778
2017-10-11T18:55:50.279Z,100776
2017-10-11T18:58:17.242Z,100779
2017-10-11T19:00:43.533Z,100777
2017-10-11T19:03:09.779Z,100779
2017-10-11T19:05:36.809Z,100780
2017-10-11T19:08:03.435Z,100777
2017-10-11T19:10:29.711Z,100778
2017-10-11T19:12:55.958Z,100785
2017-10-11T19:15:22.526Z,100774
2017-10-11T19:17:48.820Z,100777
2017-10-11T19:20:15.068Z,100767
2017-10-11T19:22:41.369Z,100769
2017-10-11T19:25:09.168Z,100758
2017-10-11T19:27:35.419Z,100762
2017-10-11T19:30:01.721Z,100767
2017-10-11T19:32:27.991Z,100763
2017-10-11T19:34:54.999Z,100767
2017-10-11T19:37:21.587Z,100770
2017-10-11T19:39:48.591Z,100770
2017-10-11T19:42:14.898Z,100759
2017-10-11T19:44:41.303Z,100754
2017-10-11T19:47:07.568Z,100754
2017-10-11T19:49:33.806Z,100744
2017-10-11T19:52:00.122Z,100742
2017-10-11T19:54:26.396Z,100737
2017-10-11T19:56:53.406Z,100737
2017-10-11T19:59:19.711Z,100740
2017-10-11T20:01:46.005Z,100730
2017-10-11T20:04:13.142Z,100732
2017-10-11T20:06:39.455Z,100730
2017-10-11T20:09:05.699Z,100722
2017-10-11T20:11:32.029Z,100721
2017-10-11T20:13:58.316Z,100725
2017-10-11T20:16:24.569Z,100713
2017-10-11T20:18:50.838Z,100704
2017-10-11T20:21:17.902Z,100703
2017-10-11T20:23:44.188Z,100698
2017-10-11T20:26:10.534Z,100709
2017-10-11T20:28:37.571Z,100714
2017-10-11T20:31:03.819Z,100710
2017-10-11T20:33:30.799Z,100706
2017-10-11T20:35:57.103Z,100707
2017-10-11T20:38:23.391Z,100709
2017-10-11T20:40:49.674Z,100707
2017-10-11T20:43:15.906Z,100701
2017-10-11T20:45:42.164Z,100704
2017-10-11T20:48:08.418Z,100705
2017-10-11T20:50:34.659Z,100706
2017-10-11T20:53:01.656Z,100709
2017-10-11T20:55:27.899Z,100693
2017-10-11T20:57:54.271Z,100703
2017-10-11T21:00:21.260Z,100705
2017-10-11T21:02:47.975Z,100699
2017-10-11T21:05:14.299Z,100696
2017-10-11T21:07:40.579Z,100693
2017-10-11T21:10:07.052Z,100693
2017-10-11T21:12:34.154Z,100681
2017-10-11T21:15:00.683Z,100680
2017-10-11T21:17:27.103Z,100682
2017-10-11T21:19:53.533Z,100679
2017-10-11T21:22:19.811Z,100678
2017-10-11T21:24:46.360Z,100677
2017-10-11T21:27:13.708Z,100681
2017-10-11T21:29:40.965Z,100663
2017-10-11T21:32:08.187Z,100669
2017-10-11T21:34:35.669Z,100662
2017-10-11T21:37:02.667Z,100664
2017-10-11T21:39:29.128Z,100662
2017-10-11T21:41:55.503Z,100660
2017-10-11T21:44:21.732Z,100656
2017-10-11T21:46:48.043Z,100653
2017-10-11T21:49:15.416Z,100648
2017-10-11T21:51:41.936Z,100641
2017-10-11T21:54:08.235Z,100640
2017-10-11T21:56:34.507Z,100641
2017-10-11T21:59:01.029Z,100650
2017-10-11T22:01:28.218Z,100640
2017-10-11T22:03:54.857Z,100640
2017-10-11T22:06:21.089Z,100646
2017-10-11T22:08:47.330Z,100635
2017-10-11T22:11:13.615Z,100641
2017-10-11T22:13:40.365Z,100635
2017-10-11T22:16:06.635Z,100645
2017-10-11T22:18:32.888Z,100634
2017-10-11T22:20:59.251Z,100632
2017-10-11T22:23:25.464Z,100634
2017-10-11T22:25:52.515Z,100621
2017-10-11T22:28:19.534Z,100616
2017-10-11T22:30:45.786Z,100617
2017-10-11T22:33:12.778Z,100611
2017-10-11T22:35:39.008Z,100616
2017-10-11T22:38:05.277Z,100608
2017-10-11T22:40:32.248Z,100609
2017-10-11T22:42:58.465Z,100597
2017-10-11T22:45:25.665Z,100599
2017-10-11T22:47:51.892Z,100594
2017-10-11T22:50:18.120Z,100586
2017-10-11T22:52:44.476Z,100587
2017-10-11T22:55:10.705Z,100579
2017-10-11T22:57:37.674Z,100575
2017-10-11T23:00:04.665Z,100571
2017-10-11T23:02:30.897Z,100573
2017-10-11T23:04:57.147Z,100569
2017-10-11T23:07:23.674Z,100566
2017-10-11T23:09:49.903Z,100568
2017-10-11T23:12:16.134Z,100559
2017-10-11T23:14:42.385Z,100563
2017-10-11T23:17:09.366Z,100567
2017-10-11T23:19:35.611Z,100564
2017-10-11T23:22:02.263Z,100560
2017-10-11T23:24:28.485Z,100555
2017-10-11T23:26:54.714Z,100556
2017-10-11T23:29:21.721Z,100551
2017-10-11T23:31:47.937Z,100545
2017-10-11T23:34:14.940Z,100546
2017-10-11T23:36:41.429Z,100543
2017-10-11T23:39:07.641Z,100550
2017-10-11T23:41:34.630Z,100537
2017-10-11T23:44:00.876Z,100534
2017-10-11T23:46:27.103Z,100535
2017-10-11T23:48:53.322Z,100527
2017-10-11T23:51:19.758Z,100514
2017-10-11T23:53:45.975Z,100518
2017-10-11T23:56:12.182Z,100511
2017-10-11T23:58:38.425Z,100513
